createdAt,value
2018-09-04T00:02:58.621Z,27
2018-09-04T00:08:06.354Z,26.9
2018-09-04T00:13:13.783Z,26.8
2018-09-04T00:18:21.384Z,26.7
2018-09-04T00:23:28.990Z,26.6
2018-09-04T00:33:44.177Z,26.5
2018-09-04T00:49:07.173Z,26.1
2018-09-04T00:54:14.703Z,26
2018-09-04T00:59:22.388Z,26
2018-09-04T01:04:30.051Z,26
2018-09-04T01:09:37.716Z,25.9
2018-09-04T01:14:46.937Z,25.8
2018-09-04T01:19:53.062Z,25.7
2018-09-04T01:25:00.779Z,25.6
2018-09-04T01:30:08.469Z,25.6
2018-09-04T01:35:16.082Z,25.5
2018-09-04T01:40:23.793Z,25.4
2018-09-04T01:45:32.069Z,25.5
2018-09-04T01:55:46.876Z,25.6
2018-09-04T02:00:54.591Z,25.6
2018-09-04T02:06:02.306Z,25.6
2018-09-04T02:11:10.015Z,25.5
2018-09-04T02:16:17.695Z,25.6
2018-09-04T02:26:33.036Z,25.5
2018-09-04T02:31:40.799Z,25.5
2018-09-04T02:36:49.511Z,25.6
2018-09-04T02:41:56.123Z,25.6
2018-09-04T02:47:03.836Z,25.6
2018-09-04T02:52:11.557Z,25.5
2018-09-04T02:57:19.100Z,25.6
2018-09-04T03:02:26.776Z,25.6
2018-09-04T03:07:34.432Z,25.6
2018-09-04T03:12:42.083Z,25.5
2018-09-04T03:17:49.751Z,25.5
2018-09-04T03:22:57.439Z,25.5
2018-09-04T03:28:05.120Z,25.5
2018-09-04T03:33:12.891Z,25.5
2018-09-04T03:38:20.462Z,25.5
2018-09-04T03:43:28.217Z,25.5
2018-09-04T03:48:35.784Z,25.6
2018-09-04T03:53:43.467Z,25.6
2018-09-04T03:58:51.240Z,25.5
2018-09-04T04:19:21.771Z,25.8
2018-09-04T04:24:29.420Z,25.8
2018-09-04T04:29:37.092Z,25.8
2018-09-04T04:39:52.405Z,25.9
2018-09-04T04:45:00.067Z,25.8
2018-09-04T05:00:23.067Z,26
2018-09-04T05:05:30.611Z,26
2018-09-04T05:10:38.236Z,26.1
2018-09-04T05:15:45.953Z,26
2018-09-04T05:20:53.479Z,26.1
2018-09-04T05:26:01.088Z,26.3
2018-09-04T05:41:23.974Z,26.4
2018-09-04T05:51:39.184Z,26.7
2018-09-04T06:01:54.461Z,27
2018-09-04T06:07:02.078Z,27.1
2018-09-04T06:22:24.728Z,27.5
2018-09-04T06:27:32.254Z,27.7
2018-09-04T06:37:47.332Z,28
2018-09-04T06:42:55.094Z,28.1
2018-09-04T06:48:02.403Z,28.2
2018-09-04T07:03:24.785Z,28.7
2018-09-04T07:08:32.324Z,28.9
2018-09-04T07:23:54.802Z,29.3
2018-09-04T07:39:16.739Z,29.7
2018-09-04T07:44:24.079Z,29.9
2018-09-04T07:49:31.843Z,30
2018-09-04T07:59:46.212Z,30.3
2018-09-04T08:10:00.963Z,30.7
2018-09-04T08:25:22.763Z,32.3
2018-09-04T08:30:30.069Z,32.9
2018-09-04T08:40:44.405Z,34.3
2018-09-04T08:45:51.661Z,34.7
2018-09-04T08:50:58.568Z,35.1
2018-09-04T09:01:12.532Z,37.4
2018-09-04T09:06:19.423Z,38.4
2018-09-04T09:11:26.275Z,38.9
2018-09-04T09:21:39.885Z,39.3
2018-09-04T09:26:46.656Z,39.4
2018-09-04T09:31:53.404Z,39.3
2018-09-04T09:42:07.362Z,39.4
2018-09-04T09:47:13.882Z,39.4
2018-09-04T09:52:20.546Z,39.6
2018-09-04T10:02:34.208Z,40.4
2018-09-04T10:07:40.815Z,41.4
2018-09-04T10:12:47.505Z,41.9
2018-09-04T10:17:54.233Z,42.3
2018-09-04T10:23:00.909Z,42.7
2018-09-04T10:28:07.394Z,42.8
2018-09-04T10:33:13.995Z,42.9
2018-09-04T10:38:20.670Z,42.9
2018-09-04T10:48:33.820Z,43.4
2018-09-04T10:58:46.939Z,44.4
2018-09-04T11:03:56.583Z,44.9
2018-09-04T11:08:59.885Z,45.6
2018-09-04T11:14:06.393Z,46.1
2018-09-04T11:19:12.644Z,46.6
2018-09-04T11:24:19.083Z,47
2018-09-04T11:29:25.425Z,47.4
2018-09-04T11:34:31.729Z,47.7
2018-09-04T11:39:38.046Z,48.1
2018-09-04T11:44:44.510Z,48.3
2018-09-04T11:49:50.590Z,48.5
2018-09-04T11:54:56.942Z,48.6
2018-09-04T12:00:03.175Z,48.6
2018-09-04T12:05:09.384Z,48.7
2018-09-04T12:10:15.744Z,48.7
2018-09-04T12:15:21.875Z,48.8
2018-09-04T12:20:28.122Z,48.7
2018-09-04T12:30:40.573Z,48.1
2018-09-04T12:40:53.067Z,46.9
2018-09-04T12:45:59.469Z,46.5
2018-09-04T12:51:05.827Z,46.6
2018-09-04T12:56:12.216Z,46.6
2018-09-04T13:01:18.727Z,46.5
2018-09-04T13:06:24.871Z,46.5
2018-09-04T13:11:31.348Z,46.5
2018-09-04T13:16:37.655Z,46.3
2018-09-04T13:26:50.391Z,46
2018-09-04T13:31:56.797Z,45.8
2018-09-04T13:37:03.225Z,45.5
2018-09-04T13:52:22.632Z,44.2
2018-09-04T13:57:29.001Z,43.8
2018-09-04T14:02:35.524Z,43.5
2018-09-04T14:07:42.119Z,43.1
2018-09-04T14:12:48.766Z,42.9
2018-09-04T14:23:01.857Z,42.4
2018-09-04T14:28:08.459Z,42.1
2018-09-04T14:33:15.072Z,42
2018-09-04T14:38:21.734Z,41.8
2018-09-04T14:43:29.072Z,41.6
2018-09-04T14:48:35.056Z,41.3
2018-09-04T14:53:41.665Z,41
2018-09-04T14:58:48.339Z,40.5
2018-09-04T15:03:55.064Z,39.4
2018-09-04T15:14:08.667Z,37.6
2018-09-04T15:19:15.585Z,37
2018-09-04T15:29:29.290Z,36.1
2018-09-04T15:34:36.248Z,35.8
2018-09-04T15:55:04.340Z,35
2018-09-04T16:05:18.603Z,34.6
2018-09-04T16:10:25.484Z,34.5
2018-09-04T16:15:32.627Z,34.4
2018-09-04T16:20:39.626Z,34.2
2018-09-04T16:36:00.895Z,33.8
2018-09-04T16:41:07.983Z,33.8
2018-09-04T16:56:29.470Z,33.7
2018-09-04T17:01:36.444Z,33.7
2018-09-04T17:06:43.560Z,33.5
2018-09-04T17:16:57.810Z,33.3
2018-09-04T17:22:05.062Z,33.3
2018-09-04T17:32:19.216Z,33.1
2018-09-04T17:37:26.381Z,33.2
2018-09-04T17:52:48.136Z,32.9
2018-09-04T17:57:55.017Z,32.8
2018-09-04T18:03:02.183Z,32.5
2018-09-04T18:08:09.354Z,32.4
2018-09-04T18:18:23.768Z,32.1
2018-09-04T18:23:32.661Z,31.9
2018-09-04T18:33:45.432Z,31.6
2018-09-04T18:38:52.681Z,31.3
2018-09-04T18:44:00.332Z,31.3
2018-09-04T18:49:07.202Z,31
2018-09-04T18:54:14.418Z,30.8
2018-09-04T18:59:21.748Z,30.5
2018-09-04T19:04:29.059Z,30.5
2018-09-04T19:09:36.346Z,30.2
2018-09-04T19:14:43.781Z,30
2018-09-04T19:19:51.104Z,29.8
2018-09-04T19:30:05.726Z,29.6
2018-09-04T19:35:13.107Z,29.4
2018-09-04T19:40:20.501Z,29.2
2018-09-04T19:45:27.923Z,29
2018-09-04T19:50:35.329Z,28.9
2018-09-04T19:55:42.763Z,28.9
2018-09-04T20:00:50.152Z,28.7
2018-09-04T20:05:57.835Z,28.6
2018-09-04T20:11:04.996Z,28.5
2018-09-04T20:16:12.416Z,28.4
2018-09-04T20:21:19.875Z,28.2
2018-09-04T20:26:27.311Z,28.1
2018-09-04T20:31:34.874Z,28
2018-09-04T20:36:42.248Z,27.8
2018-09-04T20:41:49.857Z,27.7
2018-09-04T20:46:57.179Z,27.7
2018-09-04T20:52:04.726Z,27.6
2018-09-04T21:02:19.681Z,27.3
2018-09-04T21:12:34.710Z,27.2
2018-09-04T21:17:42.202Z,27.2
2018-09-04T21:22:49.685Z,27.1
2018-09-04T21:27:57.200Z,27.1
2018-09-04T21:33:04.694Z,27
2018-09-04T21:38:12.195Z,27.1
2018-09-04T21:43:19.711Z,26.9
2018-09-04T21:48:27.237Z,26.9
2018-09-04T21:53:34.720Z,26.8
2018-09-04T21:58:44.213Z,26.8
2018-09-04T22:03:49.814Z,26.8
2018-09-04T22:08:57.300Z,26.7
2018-09-04T22:14:04.876Z,26.7
2018-09-04T22:24:19.943Z,26.5
2018-09-04T22:29:27.467Z,26.4
2018-09-04T22:34:35.048Z,26.3
2018-09-04T22:39:42.617Z,26.3
2018-09-04T22:44:50.204Z,26.1
2018-09-04T22:49:57.729Z,26
2018-09-04T22:55:05.288Z,26
2018-09-04T23:00:12.872Z,25.8
2018-09-04T23:05:20.640Z,25.7
2018-09-04T23:10:28.088Z,25.6
2018-09-04T23:15:35.693Z,25.6
2018-09-04T23:20:43.343Z,25.6
2018-09-04T23:25:50.927Z,25.4
2018-09-04T23:30:58.547Z,25.3
2018-09-04T23:36:06.330Z,25.4
2018-09-04T23:41:13.792Z,25.2
2018-09-04T23:46:21.440Z,25.1
2018-09-04T23:51:29.102Z,25
2018-09-04T23:56:36.980Z,24.9
